createdAt,value
2023-03-11T00:01:26.272Z,95978.59
2023-03-11T00:03:52.775Z,95997.72
2023-03-11T00:06:21.815Z,95987.28
2023-03-11T00:08:53.092Z,96001.81
2023-03-11T00:11:22.863Z,96002.16
2023-03-11T00:13:49.402Z,95977.34
2023-03-11T00:16:16.050Z,95982.69
2023-03-11T00:18:44.825Z,95984.31
2023-03-11T00:21:20.494Z,96000.72
2023-03-11T00:23:47.522Z,95994.09
2023-03-11T00:26:14.281Z,95994.28
2023-03-11T00:28:43.357Z,95994.16
2023-03-11T00:31:14.586Z,96005.34
2023-03-11T00:33:41.208Z,96003.78
2023-03-11T00:36:08.331Z,95988.44
2023-03-11T00:38:37.358Z,95989.25
2023-03-11T00:41:04.061Z,96012.28
2023-03-11T00:43:30.664Z,96009.59
2023-03-11T00:45:57.480Z,96003.13
2023-03-11T00:48:26.190Z,96002.31
2023-03-11T00:50:55.151Z,96007.31
2023-03-11T00:53:21.695Z,96007.69
2023-03-11T00:55:51.817Z,96008.44
2023-03-11T00:58:18.566Z,96008.22
2023-03-11T01:00:45.129Z,96008.91
2023-03-11T01:03:11.852Z,95992.19
2023-03-11T01:05:38.542Z,95995.34
2023-03-11T01:08:05.566Z,96001.75
2023-03-11T01:10:35.445Z,96000.56
2023-03-11T01:13:04.768Z,95997.09
2023-03-11T01:15:35.096Z,95992.88
2023-03-11T01:18:02.561Z,96003.63
2023-03-11T01:20:29.367Z,96004.38
2023-03-11T01:23:00.706Z,96004.44
2023-03-11T01:25:32.177Z,96000.63
2023-03-11T01:28:01.989Z,95991.75
2023-03-11T01:30:29.408Z,95989.16
2023-03-11T01:32:57.599Z,95995.19
2023-03-11T01:35:26.554Z,96002.84
2023-03-11T01:37:54.034Z,96004.81
2023-03-11T01:40:26.889Z,96002.56
2023-03-11T01:42:53.564Z,95971.56
2023-03-11T01:45:28.992Z,95961.56
2023-03-11T01:47:57.881Z,95956.63
2023-03-11T01:50:33.737Z,95955.88
2023-03-11T01:53:04.639Z,95978.50
2023-03-11T01:55:32.733Z,95978.22
2023-03-11T01:58:06.013Z,95958.72
2023-03-11T02:00:35.593Z,95944.09
2023-03-11T02:03:09.377Z,95933.16
2023-03-11T02:05:36.470Z,95932.31
2023-03-11T02:08:06.640Z,95930.47
2023-03-11T02:10:33.506Z,95930.09
2023-03-11T02:13:02.812Z,95907.91
2023-03-11T02:15:29.895Z,95904.06
2023-03-11T02:17:56.525Z,95905.69
2023-03-11T02:20:50.109Z,95914.03
2023-03-11T02:23:18.636Z,95923.66
2023-03-11T02:26:00.948Z,95942.44
2023-03-11T02:28:32.249Z,95950.84
2023-03-11T02:30:59.217Z,95947.78
2023-03-11T02:33:33.750Z,95948.50
2023-03-11T02:36:02.689Z,95958.06
2023-03-11T02:38:31.516Z,95974.16
2023-03-11T02:41:01.926Z,95978.00
2023-03-11T02:43:40.383Z,95976.84
2023-03-11T02:46:10.124Z,95986.84
2023-03-11T02:48:37.771Z,95977.28
2023-03-11T02:51:06.679Z,95982.66
2023-03-11T02:53:37.980Z,95966.97
2023-03-11T02:56:04.878Z,95965.03
2023-03-11T02:58:36.260Z,95972.00
2023-03-11T03:01:05.418Z,95960.13
2023-03-11T03:03:34.509Z,95957.81
2023-03-11T03:06:01.061Z,95942.53
2023-03-11T03:08:29.910Z,95960.13
2023-03-11T03:10:59.954Z,95972.41
2023-03-11T03:13:32.371Z,95965.06
2023-03-11T03:16:01.441Z,95968.94
2023-03-11T03:18:28.225Z,95970.53
2023-03-11T03:20:55.210Z,95957.50
2023-03-11T03:23:26.514Z,95964.44
2023-03-11T03:25:53.078Z,95965.94
2023-03-11T03:28:21.878Z,95951.81
2023-03-11T03:30:48.462Z,95948.59
2023-03-11T03:33:17.066Z,95948.16
2023-03-11T03:35:45.114Z,95961.22
2023-03-11T03:38:11.995Z,95968.91
2023-03-11T03:40:42.381Z,95964.63
2023-03-11T03:43:11.277Z,95969.25
2023-03-11T03:45:40.186Z,95977.66
2023-03-11T03:48:07.200Z,95973.84
2023-03-11T03:50:38.529Z,95981.53
2023-03-11T03:53:07.458Z,95982.78
2023-03-11T03:55:34.000Z,95996.88
2023-03-11T03:58:00.511Z,95978.53
2023-03-11T04:00:27.108Z,95962.03
2023-03-11T04:02:55.905Z,95957.88
2023-03-11T04:05:22.581Z,95968.88
2023-03-11T04:07:49.101Z,95969.31
2023-03-11T04:10:15.895Z,95962.88
2023-03-11T04:12:42.439Z,95968.63
2023-03-11T04:15:09.545Z,95959.06
2023-03-11T04:17:37.830Z,95961.41
2023-03-11T04:20:08.337Z,95957.50
2023-03-11T04:22:35.216Z,95957.53
2023-03-11T04:25:04.984Z,95964.41
2023-03-11T04:27:33.939Z,95963.31
2023-03-11T04:30:02.850Z,95972.47
2023-03-11T04:32:31.978Z,95983.19
2023-03-11T04:35:01.038Z,95976.72
2023-03-11T04:37:29.967Z,95981.69
2023-03-11T04:39:58.605Z,95976.00
2023-03-11T04:42:30.032Z,95978.25
2023-03-11T04:45:01.537Z,95977.50
2023-03-11T04:47:28.792Z,95981.66
2023-03-11T04:49:58.893Z,96000.78
2023-03-11T04:52:25.460Z,95993.88
2023-03-11T04:54:51.997Z,96006.94
2023-03-11T04:57:21.645Z,96000.75
2023-03-11T04:59:50.393Z,96004.16
2023-03-11T05:02:16.937Z,96002.75
2023-03-11T05:04:46.559Z,96000.44
2023-03-11T05:07:13.146Z,96013.09
2023-03-11T05:09:42.037Z,96009.28
2023-03-11T05:12:12.217Z,96007.38
2023-03-11T05:14:39.183Z,96016.56
2023-03-11T05:17:05.727Z,96009.25
2023-03-11T05:19:34.576Z,96012.34
2023-03-11T05:22:05.361Z,96008.13
2023-03-11T05:24:34.167Z,96022.28
2023-03-11T05:27:02.020Z,96023.03
2023-03-11T05:29:28.922Z,96023.03
2023-03-11T05:31:55.478Z,96026.41
2023-03-11T05:34:22.387Z,96023.00
2023-03-11T05:36:49.106Z,96020.72
2023-03-11T05:39:20.470Z,96029.44
2023-03-11T05:41:47.127Z,96033.25
2023-03-11T05:44:13.706Z,96027.13
2023-03-11T05:46:40.279Z,96028.31
2023-03-11T05:49:09.126Z,96031.00
2023-03-11T05:51:36.652Z,96033.69
2023-03-11T05:54:03.287Z,96028.75
2023-03-11T05:56:29.818Z,96027.59
2023-03-11T05:58:58.491Z,96022.63
2023-03-11T06:01:27.596Z,96031.03
2023-03-11T06:03:54.231Z,96018.06
2023-03-11T06:06:20.893Z,96024.50
2023-03-11T06:08:49.952Z,96018.78
2023-03-11T06:11:19.348Z,96019.16
2023-03-11T06:13:45.956Z,96018.75
2023-03-11T06:16:13.042Z,96026.41
2023-03-11T06:18:39.674Z,96039.00
2023-03-11T06:21:08.260Z,96040.13
2023-03-11T06:23:34.829Z,96048.91
2023-03-11T06:26:05.887Z,96050.84
2023-03-11T06:28:35.499Z,96058.53
2023-03-11T06:31:19.454Z,96059.69
2023-03-11T06:33:47.189Z,96067.72
2023-03-11T06:36:17.686Z,96079.94
2023-03-11T06:38:46.325Z,96080.31
2023-03-11T06:41:13.270Z,96073.84
2023-03-11T06:43:42.501Z,96076.47
2023-03-11T06:46:18.334Z,96086.31
2023-03-11T06:48:46.327Z,96092.84
2023-03-11T06:51:15.461Z,96089.88
2023-03-11T06:53:42.015Z,96091.03
2023-03-11T06:56:13.231Z,96095.59
2023-03-11T06:58:41.906Z,96098.97
2023-03-11T07:01:28.752Z,96103.53
2023-03-11T07:03:59.886Z,96106.59
2023-03-11T07:06:28.051Z,96106.25
2023-03-11T07:08:56.842Z,96103.56
2023-03-11T07:11:27.331Z,96102.41
2023-03-11T07:13:55.053Z,96105.75
2023-03-11T07:16:27.705Z,96105.75
2023-03-11T07:19:03.253Z,96105.84
2023-03-11T07:21:32.986Z,96099.38
2023-03-11T07:24:01.612Z,96108.53
2023-03-11T07:26:30.206Z,96114.25
2023-03-11T07:28:57.742Z,96111.53
2023-03-11T07:31:29.646Z,96106.63
2023-03-11T07:34:01.147Z,96103.59
2023-03-11T07:36:28.786Z,96104.38
2023-03-11T07:38:59.498Z,96108.22
2023-03-11T07:41:27.135Z,96112.38
2023-03-11T07:43:57.417Z,96120.78
2023-03-11T07:46:25.568Z,96128.84
2023-03-11T07:48:54.911Z,96129.94
2023-03-11T07:51:25.495Z,96125.38
2023-03-11T07:53:59.053Z,96122.72
2023-03-11T07:56:31.538Z,96118.53
2023-03-11T07:59:02.458Z,96124.28
2023-03-11T08:01:36.316Z,96133.06
2023-03-11T08:04:14.294Z,96136.50
2023-03-11T08:06:45.630Z,96153.69
2023-03-11T08:09:12.919Z,96154.09
2023-03-11T08:11:39.804Z,96150.25
2023-03-11T08:14:06.987Z,96152.53
2023-03-11T08:16:35.988Z,96158.63
2023-03-11T08:19:05.330Z,96162.47
2023-03-11T08:21:34.009Z,96164.00
2023-03-11T08:24:02.379Z,96159.41
2023-03-11T08:26:29.539Z,96156.75
2023-03-11T08:29:03.898Z,96175.09
2023-03-11T08:31:35.495Z,96177.41
2023-03-11T08:34:07.673Z,96180.44
2023-03-11T08:36:39.257Z,96176.97
2023-03-11T08:39:08.370Z,96178.88
2023-03-11T08:41:37.224Z,96180.41
2023-03-11T08:44:04.173Z,96174.63
2023-03-11T08:46:43.287Z,96182.28
2023-03-11T08:49:10.045Z,96190.28
2023-03-11T08:51:36.735Z,96192.94
2023-03-11T08:54:06.358Z,96189.13
2023-03-11T08:56:37.753Z,96191.06
2023-03-11T08:59:04.342Z,96193.34
2023-03-11T09:01:35.669Z,96199.66
2023-03-11T09:04:02.222Z,96205.03
2023-03-11T09:06:30.472Z,96203.41
2023-03-11T09:08:57.382Z,96201.91
2023-03-11T09:11:26.585Z,96208.94
2023-03-11T09:13:53.175Z,96213.16
2023-03-11T09:16:22.954Z,96219.97
2023-03-11T09:18:50.015Z,96219.13
2023-03-11T09:21:22.433Z,96224.13
2023-03-11T09:23:49.236Z,96230.28
2023-03-11T09:26:18.118Z,96233.63
2023-03-11T09:28:49.006Z,96242.34
2023-03-11T09:31:20.932Z,96241.19
2023-03-11T09:33:48.231Z,96241.66
2023-03-11T09:36:23.620Z,96247.88
2023-03-11T09:38:52.659Z,96245.66
2023-03-11T09:41:58.289Z,96258.72
2023-03-11T09:44:36.483Z,96255.69
2023-03-11T09:47:10.256Z,96254.97
2023-03-11T09:50:13.028Z,96257.94
2023-03-11T09:53:08.748Z,96258.22
2023-03-11T09:55:35.757Z,96258.97
2023-03-11T09:58:11.351Z,96260.50
2023-03-11T10:00:39.200Z,96260.16
2023-03-11T10:03:15.585Z,96249.97
2023-03-11T10:05:43.658Z,96258.75
2023-03-11T10:08:26.617Z,96262.53
2023-03-11T10:11:17.122Z,96273.69
2023-03-11T10:14:02.156Z,96275.31
2023-03-11T10:16:35.960Z,96263.03
2023-03-11T10:19:34.789Z,96261.53
2023-03-11T10:22:16.750Z,96266.91
2023-03-11T10:25:05.289Z,96272.25
2023-03-11T10:27:43.452Z,96266.88
2023-03-11T10:30:19.183Z,96257.72
2023-03-11T10:32:57.074Z,96266.13
2023-03-11T10:35:29.327Z,96251.59
2023-03-11T10:38:05.691Z,96261.13
2023-03-11T10:40:41.537Z,96261.91
2023-03-11T10:43:54.991Z,96247.72
2023-03-11T10:46:30.226Z,96259.53
2023-03-11T10:48:56.947Z,96261.91
2023-03-11T10:51:31.325Z,96263.38
2023-03-11T10:54:00.613Z,96254.19
2023-03-11T10:56:38.924Z,96248.03
2023-03-11T10:59:46.184Z,96254.78
2023-03-11T11:02:29.588Z,96247.44
2023-03-11T11:05:17.800Z,96259.72
2023-03-11T11:07:49.667Z,96259.34
2023-03-11T11:10:27.928Z,96265.22
2023-03-11T11:12:56.953Z,96260.53
2023-03-11T11:15:36.820Z,96256.41
2023-03-11T11:18:16.906Z,96253.00
2023-03-11T11:21:04.540Z,96254.78
2023-03-11T11:23:43.013Z,96255.16
2023-03-11T11:26:25.033Z,96250.25
2023-03-11T11:29:09.918Z,96249.44
2023-03-11T11:31:42.200Z,96249.81
2023-03-11T11:34:32.956Z,96248.50
2023-03-11T11:37:04.318Z,96242.75
2023-03-11T11:39:41.238Z,96247.59
2023-03-11T11:42:11.868Z,96251.38
2023-03-11T11:44:38.499Z,96256.31
2023-03-11T11:47:18.018Z,96252.63
2023-03-11T11:49:53.254Z,96245.38
2023-03-11T11:52:28.264Z,96236.19
2023-03-11T11:55:02.446Z,96232.31
2023-03-11T11:57:29.647Z,96236.84
2023-03-11T11:59:57.742Z,96232.94
2023-03-11T12:02:59.890Z,96228.38
2023-03-11T12:05:38.119Z,96217.66
2023-03-11T12:08:29.479Z,96223.34
2023-03-11T12:11:02.862Z,96231.50
2023-03-11T12:14:00.268Z,96231.41
2023-03-11T12:16:51.070Z,96221.34
2023-03-11T12:19:27.240Z,96228.38
2023-03-11T12:22:11.709Z,96234.03
2023-03-11T12:24:59.351Z,96230.97
2023-03-11T12:27:29.374Z,96228.88
2023-03-11T12:30:03.336Z,96231.09
2023-03-11T12:32:52.034Z,96225.56
2023-03-11T12:35:28.397Z,96216.63
2023-03-11T12:38:13.418Z,96214.50
2023-03-11T12:40:42.728Z,96208.78
2023-03-11T12:43:44.198Z,96210.84
2023-03-11T12:46:14.511Z,96190.69
2023-03-11T12:48:50.468Z,96194.69
2023-03-11T12:51:41.102Z,96200.56
2023-03-11T12:54:26.310Z,96194.13
2023-03-11T12:57:18.447Z,96195.59
2023-03-11T13:00:07.765Z,96204.59
2023-03-11T13:03:12.401Z,96203.19
2023-03-11T13:06:00.186Z,96202.00
2023-03-11T13:08:31.444Z,96199.09
2023-03-11T13:11:00.756Z,96197.44
2023-03-11T13:13:30.181Z,96194.09
2023-03-11T13:16:17.427Z,96192.34
2023-03-11T13:18:48.404Z,96188.06
2023-03-11T13:21:27.198Z,96187.25
2023-03-11T13:24:16.249Z,96184.44
2023-03-11T13:26:50.698Z,96189.34
2023-03-11T13:29:27.761Z,96198.41
2023-03-11T13:32:22.215Z,96200.13
2023-03-11T13:35:18.083Z,96198.06
2023-03-11T13:38:18.433Z,96204.25
2023-03-11T13:40:48.350Z,96202.75
2023-03-11T13:43:19.147Z,96211.72
2023-03-11T13:45:54.937Z,96217.25
2023-03-11T13:48:42.035Z,96218.19
2023-03-11T13:51:15.895Z,96203.72
2023-03-11T13:53:51.287Z,96199.72
2023-03-11T13:56:25.310Z,96209.94
2023-03-11T13:58:54.161Z,96210.84
2023-03-11T14:01:23.366Z,96201.91
2023-03-11T14:03:50.935Z,96210.13
2023-03-11T14:06:21.710Z,96203.75
2023-03-11T14:08:56.187Z,96206.81
2023-03-11T14:11:29.550Z,96218.47
2023-03-11T14:13:58.654Z,96213.25
2023-03-11T14:16:36.007Z,96216.78
2023-03-11T14:19:04.019Z,96224.44
2023-03-11T14:21:36.336Z,96221.22
2023-03-11T14:24:08.228Z,96226.50
2023-03-11T14:26:42.842Z,96219.22
2023-03-11T14:29:15.258Z,96217.94
2023-03-11T14:31:44.158Z,96220.88
2023-03-11T14:34:10.735Z,96224.75
2023-03-11T14:36:54.335Z,96232.97
2023-03-11T14:39:37.740Z,96216.03
2023-03-11T14:42:26.754Z,96225.66
2023-03-11T14:44:59.433Z,96222.59
2023-03-11T14:47:54.108Z,96220.22
2023-03-11T14:50:24.380Z,96228.13
2023-03-11T14:53:05.880Z,96223.06
2023-03-11T14:55:42.589Z,96224.09
2023-03-11T14:58:23.869Z,96221.78
2023-03-11T15:00:56.782Z,96224.16
2023-03-11T15:03:31.052Z,96217.50
2023-03-11T15:06:06.831Z,96227.22
2023-03-11T15:08:41.948Z,96225.81
2023-03-11T15:11:11.436Z,96222.22
2023-03-11T15:13:40.607Z,96229.72
2023-03-11T15:16:22.467Z,96222.44
2023-03-11T15:18:51.634Z,96222.66
2023-03-11T15:21:26.023Z,96220.75
2023-03-11T15:24:00.470Z,96226.97
2023-03-11T15:26:29.941Z,96219.41
2023-03-11T15:29:03.306Z,96215.19
2023-03-11T15:31:37.808Z,96219.72
2023-03-11T15:34:20.787Z,96223.06
2023-03-11T15:36:49.345Z,96228.06
2023-03-11T15:39:21.480Z,96234.41
2023-03-11T15:42:07.117Z,96230.28
2023-03-11T15:44:48.740Z,96238.44
2023-03-11T15:47:18.398Z,96237.38
2023-03-11T15:49:47.782Z,96238.34
2023-03-11T15:52:14.943Z,96248.97
2023-03-11T15:54:43.128Z,96239.47
2023-03-11T15:57:22.343Z,96245.91
2023-03-11T15:59:50.677Z,96249.00
2023-03-11T16:02:31.202Z,96251.09
2023-03-11T16:04:59.032Z,96254.72
2023-03-11T16:07:38.627Z,96262.94
2023-03-11T16:10:11.598Z,96272.97
2023-03-11T16:12:38.143Z,96265.28
2023-03-11T16:15:05.762Z,96275.38
2023-03-11T16:17:48.782Z,96275.72
2023-03-11T16:20:17.817Z,96285.50
2023-03-11T16:22:45.275Z,96289.75
2023-03-11T16:25:41.502Z,96286.50
2023-03-11T16:28:15.010Z,96287.72
2023-03-11T16:30:44.306Z,96287.00
2023-03-11T16:33:10.947Z,96291.13
2023-03-11T16:35:42.788Z,96287.94
2023-03-11T16:38:10.053Z,96291.75
2023-03-11T16:40:36.981Z,96303.34
2023-03-11T16:43:11.185Z,96298.69
2023-03-11T16:45:40.942Z,96303.56
2023-03-11T16:48:07.661Z,96303.94
2023-03-11T16:50:35.606Z,96302.81
2023-03-11T16:53:03.524Z,96307.06
2023-03-11T16:55:32.366Z,96307.78
2023-03-11T16:57:59.027Z,96312.47
2023-03-11T17:00:26.098Z,96306.38
2023-03-11T17:02:53.113Z,96307.06
2023-03-11T17:05:20.196Z,96311.69
2023-03-11T17:07:46.802Z,96320.47
2023-03-11T17:10:18.279Z,96323.56
2023-03-11T17:12:47.181Z,96321.19
2023-03-11T17:15:18.486Z,96324.63
2023-03-11T17:17:47.338Z,96325.34
2023-03-11T17:20:13.913Z,96332.31
2023-03-11T17:22:40.479Z,96330.78
2023-03-11T17:25:09.837Z,96340.09
2023-03-11T17:27:36.563Z,96336.25
2023-03-11T17:30:08.106Z,96342.34
2023-03-11T17:32:37.228Z,96349.25
2023-03-11T17:35:04.532Z,96353.56
2023-03-11T17:37:34.221Z,96366.59
2023-03-11T17:40:03.394Z,96371.63
2023-03-11T17:42:30.081Z,96380.41
2023-03-11T17:44:59.451Z,96389.59
2023-03-11T17:47:26.131Z,96388.06
2023-03-11T17:49:53.233Z,96381.22
2023-03-11T17:52:21.976Z,96386.97
2023-03-11T17:54:48.735Z,96388.09
2023-03-11T17:57:15.332Z,96394.97
2023-03-11T17:59:44.264Z,96398.44
2023-03-11T18:02:15.141Z,96399.66
2023-03-11T18:04:45.917Z,96404.22
2023-03-11T18:07:13.003Z,96404.25
2023-03-11T18:09:39.582Z,96398.94
2023-03-11T18:12:06.836Z,96406.22
2023-03-11T18:14:36.449Z,96401.22
2023-03-11T18:17:05.240Z,96410.78
2023-03-11T18:19:31.759Z,96398.13
2023-03-11T18:21:58.286Z,96395.47
2023-03-11T18:24:24.875Z,96401.53
2023-03-11T18:26:51.524Z,96392.78
2023-03-11T18:29:18.579Z,96402.75
2023-03-11T18:31:48.708Z,96409.63
2023-03-11T18:34:15.286Z,96414.59
2023-03-11T18:36:49.147Z,96419.19
2023-03-11T18:39:17.968Z,96419.19
2023-03-11T18:41:44.527Z,96414.97
2023-03-11T18:44:11.394Z,96421.53
2023-03-11T18:46:38.021Z,96420.69
2023-03-11T18:49:09.325Z,96434.50
2023-03-11T18:51:35.885Z,96425.31
2023-03-11T18:54:02.869Z,96433.75
2023-03-11T18:56:33.107Z,96439.84
2023-03-11T18:59:00.518Z,96444.41
2023-03-11T19:01:32.983Z,96447.81
2023-03-11T19:04:00.555Z,96451.69
2023-03-11T19:06:28.878Z,96452.50
2023-03-11T19:08:57.008Z,96445.97
2023-03-11T19:11:25.576Z,96451.72
2023-03-11T19:13:52.909Z,96460.13
2023-03-11T19:16:22.729Z,96455.13
2023-03-11T19:18:50.270Z,96462.84
2023-03-11T19:21:17.662Z,96465.91
2023-03-11T19:23:45.356Z,96464.44
2023-03-11T19:26:12.977Z,96475.13
2023-03-11T19:28:39.624Z,96478.22
2023-03-11T19:31:06.631Z,96475.50
2023-03-11T19:33:33.742Z,96481.28
2023-03-11T19:36:03.596Z,96471.28
2023-03-11T19:38:30.504Z,96478.22
2023-03-11T19:41:04.611Z,96478.22
2023-03-11T19:43:32.062Z,96477.06
2023-03-11T19:46:01.645Z,96483.56
2023-03-11T19:48:31.237Z,96487.41
2023-03-11T19:51:00.102Z,96483.19
2023-03-11T19:53:27.400Z,96484.34
2023-03-11T19:55:57.153Z,96487.81
2023-03-11T19:58:30.549Z,96485.91
2023-03-11T20:00:58.345Z,96490.84
2023-03-11T20:03:25.568Z,96503.88
2023-03-11T20:05:57.860Z,96504.28
2023-03-11T20:08:26.114Z,96498.16
2023-03-11T20:10:53.780Z,96493.94
2023-03-11T20:13:25.674Z,96503.50
2023-03-11T20:15:52.265Z,96505.44
2023-03-11T20:18:19.055Z,96508.50
2023-03-11T20:20:47.836Z,96503.88
2023-03-11T20:23:16.859Z,96505.81
2023-03-11T20:25:45.656Z,96505.44
2023-03-11T20:28:14.845Z,96514.63
2023-03-11T20:30:41.501Z,96513.84
2023-03-11T20:33:08.405Z,96510.78
2023-03-11T20:35:35.351Z,96508.88
2023-03-11T20:38:03.058Z,96514.63
2023-03-11T20:40:32.257Z,96516.94
2023-03-11T20:42:58.943Z,96513.84
2023-03-11T20:45:25.653Z,96518.06
2023-03-11T20:47:55.813Z,96513.09
2023-03-11T20:50:25.522Z,96513.88
2023-03-11T20:52:54.410Z,96523.06
2023-03-11T20:55:23.762Z,96523.81
2023-03-11T20:57:50.365Z,96524.59
2023-03-11T21:00:20.582Z,96517.69
2023-03-11T21:02:47.252Z,96529.19
2023-03-11T21:05:16.204Z,96529.97
2023-03-11T21:07:42.899Z,96533.03
2023-03-11T21:10:15.058Z,96532.66
2023-03-11T21:12:46.202Z,96534.16
2023-03-11T21:15:15.236Z,96531.47
2023-03-11T21:17:44.218Z,96531.88
2023-03-11T21:20:13.923Z,96526.13
2023-03-11T21:22:40.592Z,96522.28
2023-03-11T21:25:08.693Z,96527.66
2023-03-11T21:27:37.995Z,96543.34
2023-03-11T21:30:07.878Z,96544.88
2023-03-11T21:32:36.825Z,96545.25
2023-03-11T21:35:03.998Z,96542.97
2023-03-11T21:37:35.372Z,96544.88
2023-03-11T21:40:05.852Z,96548.34
2023-03-11T21:42:32.601Z,96544.91
2023-03-11T21:45:01.633Z,96544.13
2023-03-11T21:47:31.153Z,96544.13
2023-03-11T21:49:57.762Z,96547.59
2023-03-11T21:52:24.344Z,96544.50
2023-03-11T21:54:51.040Z,96553.69
2023-03-11T21:57:19.918Z,96558.69
2023-03-11T21:59:46.726Z,96547.19
2023-03-11T22:02:15.635Z,96552.16
2023-03-11T22:04:45.221Z,96547.94
2023-03-11T22:07:12.153Z,96560.97
2023-03-11T22:09:38.853Z,96559.84
2023-03-11T22:12:05.948Z,96556.78
2023-03-11T22:14:32.552Z,96566.75
2023-03-11T22:16:59.164Z,96570.97
2023-03-11T22:19:25.904Z,96579.81
2023-03-11T22:21:52.509Z,96578.63
2023-03-11T22:24:23.851Z,96577.50
2023-03-11T22:26:53.441Z,96570.97
2023-03-11T22:29:20.029Z,96587.06
2023-03-11T22:31:49.144Z,96586.28
2023-03-11T22:34:20.673Z,96582.47
2023-03-11T22:36:47.359Z,96579.75
2023-03-11T22:39:13.925Z,96585.13
2023-03-11T22:41:42.802Z,96586.28
2023-03-11T22:44:09.338Z,96578.63
2023-03-11T22:46:35.892Z,96585.88
2023-03-11T22:49:04.854Z,96585.50
2023-03-11T22:51:31.448Z,96588.56
2023-03-11T22:53:58.006Z,96587.03
2023-03-11T22:56:24.629Z,96591.97
2023-03-11T22:58:51.175Z,96595.06
2023-03-11T23:01:20.237Z,96606.91
2023-03-11T23:03:46.942Z,96603.09
2023-03-11T23:06:17.144Z,96604.63
2023-03-11T23:08:47.064Z,96614.94
2023-03-11T23:11:17.892Z,96611.88
2023-03-11T23:13:44.751Z,96613.06
2023-03-11T23:16:19.507Z,96613.06
2023-03-11T23:18:57.449Z,96616.16
2023-03-11T23:21:32.259Z,96613.09
2023-03-11T23:24:00.763Z,96617.31
2023-03-11T23:26:30.934Z,96612.69
2023-03-11T23:29:01.155Z,96611.53
2023-03-11T23:31:33.553Z,96617.69
2023-03-11T23:34:02.506Z,96608.88
2023-03-11T23:36:33.952Z,96618.03
2023-03-11T23:39:00.604Z,96616.50
2023-03-11T23:41:31.985Z,96614.59
2023-03-11T23:43:58.599Z,96614.59
2023-03-11T23:46:27.417Z,96614.59
2023-03-11T23:48:56.302Z,96616.50
2023-03-11T23:51:25.324Z,96613.03
2023-03-11T23:53:51.913Z,96608.81
2023-03-11T23:56:19.259Z,96609.97
2023-03-11T23:58:46.444Z,96606.91
